Time;durP1;ratioP1;P1;durP2;ratioP2;P2;SDS_P1;SDS_P2;PMS_P1;PMS_P2;Temp;Humidity;BMP_temperature;BMP_pressure;BME280_temperature;BME280_humidity;BME280_pressure;Samples;Min_cycle;Max_cycle;Signal;HPM_P1;HPM_P2
2022/03/25 00:00:07;;;;;;;21.17;15.38;;;;;;;;;;5065511;28;20204;-67
2022/03/25 00:02:33;;;;;;;21.92;14.10;;;;;;;;;;5065583;28;20197;-67
2022/03/25 00:04:59;;;;;;;23.33;14.40;;;;;;;;;;5065540;28;20259;-67
2022/03/25 00:07:27;;;;;;;21.50;14.23;;;;;;;;;;5065322;28;20228;-67
2022/03/25 00:09:54;;;;;;;19.10;14.10;;;;;;;;;;5065430;28;20232;-67
2022/03/25 00:12:20;;;;;;;17.30;14.55;;;;;;;;;;5065242;28;20197;-67
2022/03/25 00:14:46;;;;;;;19.23;14.20;;;;;;;;;;5065327;28;20201;-66
2022/03/25 00:17:14;;;;;;;21.20;14.35;;;;;;;;;;5064995;28;20197;-67
2022/03/25 00:19:40;;;;;;;19.73;14.50;;;;;;;;;;5065073;28;20197;-67
2022/03/25 00:22:06;;;;;;;16.80;14.15;;;;;;;;;;5065018;28;20224;-67
2022/03/25 00:24:32;;;;;;;22.55;15.60;;;;;;;;;;5065062;28;20227;-67
2022/03/25 00:26:59;;;;;;;24.23;14.73;;;;;;;;;;5064673;28;20225;-67
2022/03/25 00:29:25;;;;;;;20.92;14.20;;;;;;;;;;5064952;28;20205;-67
2022/03/25 00:31:51;;;;;;;18.67;13.90;;;;;;;;;;5065026;28;20212;-67
2022/03/25 00:34:19;;;;;;;21.23;14.40;;;;;;;;;;5064908;28;20224;-67
2022/03/25 00:36:45;;;;;;;18.50;13.73;;;;;;;;;;5064713;28;20220;-67
2022/03/25 00:39:11;;;;;;;21.35;14.70;;;;;;;;;;5064758;28;20197;-67
2022/03/25 00:41:38;;;;;;;22.88;14.50;;;;;;;;;;5064880;28;20198;-67
2022/03/25 00:44:05;;;;;;;20.50;14.20;;;;;;;;;;5064724;28;20251;-67
2022/03/25 00:46:31;;;;;;;22.10;14.25;;;;;;;;;;5064949;28;20492;-66
2022/03/25 00:48:57;;;;;;;18.83;13.93;;;;;;;;;;5064467;28;20217;-67
2022/03/25 00:51:25;;;;;;;19.42;14.55;;;;;;;;;;5064500;28;20197;-67
2022/03/25 00:53:51;;;;;;;20.83;14.23;;;;;;;;;;5064621;28;20568;-67
2022/03/25 00:56:17;;;;;;;20.02;14.40;;;;;;;;;;5064210;28;20431;-67
2022/03/25 00:58:44;;;;;;;22.73;14.88;;;;;;;;;;5064484;28;20197;-67
2022/03/25 01:01:10;;;;;;;22.35;14.82;;;;;;;;;;5064394;28;20204;-67
2022/03/25 01:03:36;;;;;;;21.83;13.98;;;;;;;;;;5064052;28;20197;-67
2022/03/25 01:06:03;;;;;;;22.48;15.30;;;;;;;;;;5064010;28;20262;-67
2022/03/25 01:08:30;;;;;;;19.80;15.07;;;;;;;;;;5064110;28;20217;-67
2022/03/25 01:10:57;;;;;;;19.40;13.88;;;;;;;;;;5064435;28;20204;-67
2022/03/25 01:13:23;;;;;;;18.13;13.52;;;;;;;;;;5064470;28;20204;-67
2022/03/25 01:15:49;;;;;;;19.33;14.15;;;;;;;;;;5064490;28;20197;-67
2022/03/25 01:18:16;;;;;;;23.30;14.30;;;;;;;;;;5064121;28;20217;-66
2022/03/25 01:20:42;;;;;;;25.75;15.38;;;;;;;;;;5064203;28;20216;-66
2022/03/25 01:23:09;;;;;;;21.02;13.70;;;;;;;;;;5064386;28;20197;-67
2022/03/25 01:25:37;;;;;;;22.35;15.60;;;;;;;;;;5064389;28;20518;-67
2022/03/25 01:28:03;;;;;;;23.13;15.05;;;;;;;;;;5063810;28;20464;-67
2022/03/25 01:30:29;;;;;;;23.60;15.27;;;;;;;;;;5063837;28;20426;-67
2022/03/25 01:32:56;;;;;;;22.58;15.07;;;;;;;;;;5063944;28;20201;-67
2022/03/25 01:35:24;;;;;;;22.27;15.27;;;;;;;;;;5063804;28;20193;-67
2022/03/25 01:37:50;;;;;;;20.90;14.57;;;;;;;;;;5062919;28;20201;-67
2022/03/25 01:40:17;;;;;;;17.20;13.60;;;;;;;;;;5063567;28;20219;-67
2022/03/25 01:42:44;;;;;;;18.05;14.65;;;;;;;;;;5063603;28;20204;-67
2022/03/25 01:45:12;;;;;;;20.92;14.77;;;;;;;;;;5063349;28;20205;-66
2022/03/25 01:47:39;;;;;;;25.45;15.05;;;;;;;;;;5063082;28;20383;-69
2022/03/25 01:50:13;;;;;;;18.60;14.20;;;;;;;;;;5062995;28;20197;-67
2022/03/25 01:52:39;;;;;;;21.65;14.75;;;;;;;;;;5063530;28;20204;-67
2022/03/25 01:55:16;;;;;;;21.98;15.35;;;;;;;;;;5063368;28;20519;-67
2022/03/25 01:57:43;;;;;;;19.63;14.70;;;;;;;;;;5063138;28;20208;-67
2022/03/25 02:00:14;;;;;;;20.33;14.88;;;;;;;;;;5063208;28;20469;-67
2022/03/25 02:02:40;;;;;;;22.13;15.07;;;;;;;;;;5063353;28;20197;-67
2022/03/25 02:05:06;;;;;;;25.58;14.80;;;;;;;;;;5063114;28;20466;-67
2022/03/25 02:07:33;;;;;;;19.00;14.73;;;;;;;;;;5062924;28;20577;-66
2022/03/25 02:10:00;;;;;;;20.35;15.32;;;;;;;;;;5063101;28;20220;-67
2022/03/25 02:12:26;;;;;;;24.35;15.88;;;;;;;;;;5062864;28;20618;-67
2022/03/25 02:14:52;;;;;;;21.40;14.75;;;;;;;;;;5062903;28;20197;-66
2022/03/25 02:17:20;;;;;;;20.75;13.98;;;;;;;;;;5062807;28;20197;-67
2022/03/25 02:19:48;;;;;;;23.85;15.60;;;;;;;;;;5062930;28;20273;-66
2022/03/25 02:22:16;;;;;;;20.33;14.27;;;;;;;;;;5062759;28;20193;-67
2022/03/25 02:24:42;;;;;;;18.92;14.98;;;;;;;;;;5062762;28;20205;-69
2022/03/25 02:27:09;;;;;;;23.27;15.38;;;;;;;;;;5062472;28;20201;-69
2022/03/25 02:29:35;;;;;;;20.73;14.73;;;;;;;;;;5062832;28;20547;-67
2022/03/25 02:32:01;;;;;;;22.55;14.52;;;;;;;;;;5062200;28;20500;-67
2022/03/25 02:34:27;;;;;;;25.50;14.18;;;;;;;;;;5062761;28;20428;-67
2022/03/25 02:36:54;;;;;;;18.35;14.40;;;;;;;;;;5062278;28;20505;-69
2022/03/25 02:39:22;;;;;;;20.60;15.15;;;;;;;;;;5062779;28;20261;-67
2022/03/25 02:41:49;;;;;;;20.15;14.80;;;;;;;;;;5062588;28;20205;-66
2022/03/25 02:44:15;;;;;;;21.35;14.65;;;;;;;;;;5062652;28;20197;-67
2022/03/25 02:46:42;;;;;;;21.27;14.15;;;;;;;;;;5062247;28;20365;-67
2022/03/25 02:49:08;;;;;;;21.10;15.35;;;;;;;;;;5062217;28;20251;-66
2022/03/25 02:51:34;;;;;;;21.55;15.25;;;;;;;;;;5062160;28;20531;-66
2022/03/25 02:54:01;;;;;;;23.00;14.88;;;;;;;;;;5062129;28;20244;-67
2022/03/25 02:56:28;;;;;;;22.23;15.25;;;;;;;;;;5062057;28;20196;-66
2022/03/25 02:58:54;;;;;;;23.75;14.88;;;;;;;;;;5062294;28;20192;-66
2022/03/25 03:01:21;;;;;;;21.98;15.65;;;;;;;;;;5062324;28;20197;-67
2022/03/25 03:03:47;;;;;;;19.35;14.73;;;;;;;;;;5062071;28;20197;-66
2022/03/25 03:06:14;;;;;;;19.25;14.10;;;;;;;;;;5061883;28;20410;-67
2022/03/25 03:08:41;;;;;;;23.42;15.10;;;;;;;;;;5062200;28;20338;-66
2022/03/25 03:11:08;;;;;;;19.77;14.65;;;;;;;;;;5062184;28;20525;-66
2022/03/25 03:13:35;;;;;;;19.15;14.98;;;;;;;;;;5062232;28;20229;-66
2022/03/25 03:16:02;;;;;;;21.92;15.93;;;;;;;;;;5061835;28;20197;-66
2022/03/25 03:18:28;;;;;;;23.25;14.70;;;;;;;;;;5061931;28;20231;-66
2022/03/25 03:20:54;;;;;;;24.52;15.30;;;;;;;;;;5062079;28;20209;-67
2022/03/25 03:23:20;;;;;;;21.27;15.60;;;;;;;;;;5062184;28;20197;-66
2022/03/25 03:25:47;;;;;;;22.95;15.70;;;;;;;;;;5061861;28;20267;-66
2022/03/25 03:28:13;;;;;;;23.38;15.55;;;;;;;;;;5061835;28;20290;-66
2022/03/25 03:30:41;;;;;;;24.25;17.15;;;;;;;;;;5062017;28;20455;-68
2022/03/25 03:33:08;;;;;;;24.55;17.35;;;;;;;;;;5061834;28;20204;-66
2022/03/25 03:35:34;;;;;;;26.40;18.00;;;;;;;;;;5062158;28;20449;-69
2022/03/25 03:38:01;;;;;;;21.77;16.42;;;;;;;;;;5061992;28;20217;-69
2022/03/25 03:40:28;;;;;;;24.25;16.73;;;;;;;;;;5061931;28;20227;-69
2022/03/25 03:42:55;;;;;;;21.33;16.45;;;;;;;;;;5061868;28;20203;-68
2022/03/25 03:45:21;;;;;;;23.63;15.75;;;;;;;;;;5061977;28;20205;-69
2022/03/25 03:47:48;;;;;;;22.15;15.48;;;;;;;;;;5061300;28;20197;-69
2022/03/25 03:50:16;;;;;;;22.88;16.20;;;;;;;;;;5061753;28;20201;-68
2022/03/25 03:52:42;;;;;;;22.73;15.55;;;;;;;;;;5061888;28;20205;-69
2022/03/25 03:55:09;;;;;;;22.08;15.65;;;;;;;;;;5061856;28;20201;-68
2022/03/25 03:57:36;;;;;;;23.33;15.27;;;;;;;;;;5061572;28;20200;-69
2022/03/25 04:00:03;;;;;;;20.23;15.00;;;;;;;;;;5061664;28;20197;-68
2022/03/25 04:02:29;;;;;;;21.40;15.02;;;;;;;;;;5061953;28;20205;-68
2022/03/25 04:04:58;;;;;;;21.05;15.85;;;;;;;;;;5061783;28;20369;-68
2022/03/25 04:07:24;;;;;;;22.15;15.18;;;;;;;;;;5061702;28;20197;-68
2022/03/25 04:09:51;;;;;;;22.48;15.25;;;;;;;;;;5061691;28;20221;-68
2022/03/25 04:12:17;;;;;;;23.40;15.57;;;;;;;;;;5061661;28;20198;-68
2022/03/25 04:14:44;;;;;;;22.02;15.68;;;;;;;;;;5065345;28;20243;-68
2022/03/25 04:17:11;;;;;;;23.58;16.58;;;;;;;;;;5065144;28;20393;-68
2022/03/25 04:19:37;;;;;;;23.17;17.50;;;;;;;;;;5065369;28;20193;-68
2022/03/25 04:22:05;;;;;;;23.25;16.23;;;;;;;;;;5065330;28;20197;-68
2022/03/25 04:24:32;;;;;;;24.10;16.52;;;;;;;;;;5065091;28;20307;-68
2022/03/25 04:26:58;;;;;;;21.80;16.60;;;;;;;;;;5064934;28;20197;-69
2022/03/25 04:29:24;;;;;;;25.23;16.75;;;;;;;;;;5064822;28;20217;-68
2022/03/25 04:31:51;;;;;;;22.95;16.33;;;;;;;;;;5065337;28;20268;-68
2022/03/25 04:34:18;;;;;;;22.45;17.48;;;;;;;;;;5065151;28;20209;-69
2022/03/25 04:36:44;;;;;;;23.83;16.02;;;;;;;;;;5064725;28;20197;-68
2022/03/25 04:39:11;;;;;;;25.27;15.98;;;;;;;;;;5064818;28;20201;-68
2022/03/25 04:41:38;;;;;;;22.55;16.08;;;;;;;;;;5064873;28;20201;-68
2022/03/25 04:44:04;;;;;;;27.40;16.73;;;;;;;;;;5064530;28;20236;-68
2022/03/25 04:46:30;;;;;;;28.25;17.10;;;;;;;;;;5064614;28;20443;-68
2022/03/25 04:48:57;;;;;;;25.60;17.08;;;;;;;;;;5064596;28;20451;-68
2022/03/25 04:51:23;;;;;;;23.92;16.23;;;;;;;;;;5064772;28;20197;-68
2022/03/25 04:53:49;;;;;;;26.02;17.23;;;;;;;;;;5064504;28;20424;-68
2022/03/25 04:56:18;;;;;;;24.48;17.92;;;;;;;;;;5064324;28;20197;-68
2022/03/25 04:58:45;;;;;;;21.25;16.33;;;;;;;;;;5064505;28;20200;-68
2022/03/25 05:01:11;;;;;;;23.67;16.23;;;;;;;;;;5064524;28;20247;-68
2022/03/25 05:03:37;;;;;;;30.42;16.20;;;;;;;;;;5064465;28;20259;-68
2022/03/25 05:06:03;;;;;;;25.15;18.17;;;;;;;;;;5064261;28;20225;-68
2022/03/25 05:08:30;;;;;;;25.40;16.15;;;;;;;;;;5064390;28;20213;-68
2022/03/25 05:10:56;;;;;;;27.77;17.42;;;;;;;;;;5064108;28;20197;-68
2022/03/25 05:13:25;;;;;;;24.67;17.23;;;;;;;;;;5064289;28;20268;-68
2022/03/25 05:15:51;;;;;;;25.38;16.30;;;;;;;;;;5063881;28;20203;-69
2022/03/25 05:18:17;;;;;;;28.98;16.63;;;;;;;;;;5064269;28;20243;-69
2022/03/25 05:20:44;;;;;;;23.52;16.27;;;;;;;;;;5063945;28;20197;-69
2022/03/25 05:23:10;;;;;;;27.52;17.23;;;;;;;;;;5063961;28;20221;-69
2022/03/25 05:25:36;;;;;;;26.63;16.27;;;;;;;;;;5062765;28;20255;-69
2022/03/25 05:28:03;;;;;;;26.90;17.40;;;;;;;;;;5063781;28;20228;-69
2022/03/25 05:30:31;;;;;;;21.75;15.93;;;;;;;;;;5063946;28;20225;-69
2022/03/25 05:32:58;;;;;;;26.52;16.58;;;;;;;;;;5063869;28;20268;-69
2022/03/25 05:35:24;;;;;;;27.25;17.05;;;;;;;;;;5064232;28;20210;-69
2022/03/25 05:37:51;;;;;;;24.45;16.95;;;;;;;;;;5063562;28;20201;-69
2022/03/25 05:40:18;;;;;;;24.10;16.42;;;;;;;;;;5063586;28;20240;-69
2022/03/25 05:42:45;;;;;;;26.08;16.45;;;;;;;;;;5063807;28;20500;-69
2022/03/25 05:45:11;;;;;;;24.58;18.05;;;;;;;;;;5064040;28;20197;-67
2022/03/25 05:47:39;;;;;;;27.63;17.60;;;;;;;;;;5063209;28;20208;-67
2022/03/25 05:50:07;;;;;;;25.52;17.95;;;;;;;;;;5063405;28;20435;-67
2022/03/25 05:52:33;;;;;;;24.90;16.85;;;;;;;;;;5063437;28;20235;-67
2022/03/25 05:54:59;;;;;;;25.63;17.02;;;;;;;;;;5063263;28;20392;-68
2022/03/25 05:57:26;;;;;;;24.10;17.45;;;;;;;;;;5063265;28;20205;-67
2022/03/25 05:59:52;;;;;;;29.05;18.13;;;;;;;;;;5063289;28;20231;-68
2022/03/25 06:02:18;;;;;;;29.75;18.60;;;;;;;;;;5063263;28;20204;-67
2022/03/25 06:04:46;;;;;;;30.90;18.65;;;;;;;;;;5063108;28;20200;-67
2022/03/25 06:07:12;;;;;;;31.70;19.30;;;;;;;;;;5062908;28;20201;-67
2022/03/25 06:09:39;;;;;;;30.45;19.40;;;;;;;;;;5063569;28;20228;-67
2022/03/25 06:12:06;;;;;;;32.75;18.35;;;;;;;;;;5063126;28;20235;-67
2022/03/25 06:14:32;;;;;;;34.00;19.17;;;;;;;;;;5063091;28;20205;-67
2022/03/25 06:16:58;;;;;;;40.17;19.30;;;;;;;;;;5062866;28;20197;-67
2022/03/25 06:19:25;;;;;;;32.50;18.77;;;;;;;;;;5062942;28;20197;-67
2022/03/25 06:21:52;;;;;;;30.80;17.85;;;;;;;;;;5062990;28;20255;-67
2022/03/25 06:24:18;;;;;;;28.88;18.13;;;;;;;;;;5063281;28;20212;-67
2022/03/25 06:26:45;;;;;;;31.42;18.75;;;;;;;;;;5062666;28;20235;-67
2022/03/25 06:29:11;;;;;;;36.55;18.63;;;;;;;;;;5062788;28;20221;-67
2022/03/25 06:31:37;;;;;;;37.45;19.02;;;;;;;;;;5062626;28;20428;-68
2022/03/25 06:34:04;;;;;;;30.05;18.75;;;;;;;;;;5062701;28;20205;-68
2022/03/25 06:36:30;;;;;;;43.28;22.05;;;;;;;;;;5061877;28;20204;-68
2022/03/25 06:38:58;;;;;;;36.97;19.58;;;;;;;;;;5062766;28;20197;-67
2022/03/25 06:41:24;;;;;;;43.53;19.17;;;;;;;;;;5062364;28;20204;-67
2022/03/25 06:43:50;;;;;;;35.83;18.75;;;;;;;;;;5062302;28;20196;-67
2022/03/25 06:46:17;;;;;;;37.90;19.70;;;;;;;;;;5061875;28;20205;-67
2022/03/25 06:48:44;;;;;;;35.72;19.73;;;;;;;;;;5061723;28;20219;-67
2022/03/25 06:51:11;;;;;;;41.15;19.27;;;;;;;;;;5061847;28;20201;-67
2022/03/25 06:53:37;;;;;;;38.50;19.77;;;;;;;;;;5062008;28;20201;-67
2022/03/25 06:56:05;;;;;;;37.38;18.58;;;;;;;;;;5061732;28;20212;-67
2022/03/25 06:58:34;;;;;;;30.33;18.63;;;;;;;;;;5061713;28;20517;-67
2022/03/25 07:01:01;;;;;;;36.42;19.55;;;;;;;;;;5061515;28;20265;-67
2022/03/25 07:03:28;;;;;;;30.88;18.33;;;;;;;;;;5061626;28;20208;-67
2022/03/25 07:05:54;;;;;;;37.15;20.17;;;;;;;;;;5061616;28;20228;-67
2022/03/25 07:08:22;;;;;;;37.47;20.08;;;;;;;;;;5061478;28;20201;-66
2022/03/25 07:10:48;;;;;;;36.53;19.90;;;;;;;;;;5061859;28;20225;-66
2022/03/25 07:13:16;;;;;;;41.20;18.83;;;;;;;;;;5061493;28;20197;-67
2022/03/25 07:15:42;;;;;;;34.83;20.60;;;;;;;;;;5061720;28;20197;-67
2022/03/25 07:18:09;;;;;;;33.92;20.25;;;;;;;;;;5061228;28;20201;-67
2022/03/25 07:20:35;;;;;;;35.92;20.48;;;;;;;;;;5061638;28;20197;-58
2022/03/25 07:23:02;;;;;;;31.42;19.63;;;;;;;;;;5061214;28;20197;-58
2022/03/25 07:25:30;;;;;;;31.98;18.90;;;;;;;;;;5051319;28;20243;-56
2022/03/25 07:27:56;;;;;;;35.55;19.35;;;;;;;;;;5059028;28;20219;-57
2022/03/25 07:30:23;;;;;;;27.90;17.73;;;;;;;;;;5066960;28;20553;-56
2022/03/25 07:32:50;;;;;;;26.23;18.00;;;;;;;;;;5060725;28;20267;-57
2022/03/25 07:35:17;;;;;;;27.13;18.90;;;;;;;;;;5055542;28;20217;-57
2022/03/25 07:37:44;;;;;;;31.58;19.42;;;;;;;;;;5055642;28;20236;-56
2022/03/25 07:40:11;;;;;;;31.85;19.60;;;;;;;;;;5055131;28;20243;-56
2022/03/25 07:42:37;;;;;;;36.58;18.50;;;;;;;;;;5055585;28;20623;-56
2022/03/25 07:45:04;;;;;;;37.08;18.92;;;;;;;;;;5055409;28;20601;-57
2022/03/25 07:47:32;;;;;;;26.33;17.92;;;;;;;;;;5055619;28;20212;-57
2022/03/25 07:49:58;;;;;;;33.15;18.15;;;;;;;;;;5058351;28;20251;-57
2022/03/25 07:52:25;;;;;;;30.67;17.83;;;;;;;;;;5059802;28;20216;-58
2022/03/25 07:54:51;;;;;;;25.65;18.30;;;;;;;;;;5059496;28;20263;-57
2022/03/25 07:57:17;;;;;;;32.40;19.75;;;;;;;;;;5059630;28;20231;-57
2022/03/25 07:59:43;;;;;;;27.63;19.25;;;;;;;;;;5059419;28;20197;-57
2022/03/25 08:02:11;;;;;;;32.78;19.73;;;;;;;;;;5059231;28;20254;-57
2022/03/25 08:04:38;;;;;;;31.92;18.73;;;;;;;;;;5056641;28;20228;-57
2022/03/25 08:07:05;;;;;;;35.65;18.73;;;;;;;;;;5059304;28;20215;-57
2022/03/25 08:09:31;;;;;;;30.73;19.88;;;;;;;;;;5059522;28;20228;-57
2022/03/25 08:11:57;;;;;;;33.08;20.55;;;;;;;;;;5058500;28;20263;-57
2022/03/25 08:14:23;;;;;;;26.48;19.00;;;;;;;;;;5058737;28;20209;-56
2022/03/25 08:16:50;;;;;;;29.15;19.75;;;;;;;;;;5058958;28;20213;-56
2022/03/25 08:19:16;;;;;;;28.05;19.60;;;;;;;;;;5060575;28;20258;-55
2022/03/25 08:21:43;;;;;;;30.27;19.25;;;;;;;;;;5043471;28;20277;-56
2022/03/25 08:29:38;;;;;;;27.60;20.70;;;;;;;;;;5047505;28;20251;-57
2022/03/25 08:32:05;;;;;;;29.80;20.83;;;;;;;;;;5059230;28;20582;-56
2022/03/25 08:34:31;;;;;;;33.83;20.45;;;;;;;;;;5058672;28;20533;-57
2022/03/25 08:36:59;;;;;;;30.30;20.25;;;;;;;;;;5058620;28;20209;-58
2022/03/25 08:39:25;;;;;;;37.72;21.80;;;;;;;;;;5059127;28;20216;-59
2022/03/25 08:41:52;;;;;;;29.55;19.67;;;;;;;;;;5058954;28;20216;-58
2022/03/25 08:44:18;;;;;;;39.30;20.48;;;;;;;;;;5058277;28;20212;-57
2022/03/25 08:46:44;;;;;;;32.25;20.90;;;;;;;;;;5058152;28;20459;-58
2022/03/25 08:49:11;;;;;;;32.40;19.98;;;;;;;;;;5058626;28;20535;-58
2022/03/25 08:51:37;;;;;;;33.75;20.63;;;;;;;;;;5058443;28;20219;-57
2022/03/25 08:54:05;;;;;;;33.05;21.15;;;;;;;;;;5058557;28;20201;-57
2022/03/25 08:56:31;;;;;;;36.38;21.70;;;;;;;;;;5058038;28;20251;-58
2022/03/25 08:58:58;;;;;;;31.77;21.33;;;;;;;;;;5058458;28;20213;-57
2022/03/25 09:01:24;;;;;;;32.05;21.33;;;;;;;;;;5058315;28;20518;-58
2022/03/25 09:03:50;;;;;;;33.20;20.60;;;;;;;;;;5057512;28;20568;-57
2022/03/25 09:06:17;;;;;;;31.95;21.40;;;;;;;;;;5057312;28;20233;-58
2022/03/25 09:08:43;;;;;;;33.35;21.02;;;;;;;;;;5057472;28;20267;-58
2022/03/25 09:11:11;;;;;;;36.60;22.13;;;;;;;;;;5058476;28;20224;-57
2022/03/25 09:13:37;;;;;;;33.58;21.02;;;;;;;;;;5058318;28;20247;-56
2022/03/25 09:16:03;;;;;;;33.45;21.75;;;;;;;;;;5057880;28;20209;-58
2022/03/25 09:18:30;;;;;;;35.58;22.98;;;;;;;;;;5057846;28;20208;-57
2022/03/25 09:20:56;;;;;;;36.22;23.27;;;;;;;;;;5058434;28;20274;-56
2022/03/25 09:23:22;;;;;;;40.60;22.48;;;;;;;;;;5058411;28;20255;-57
2022/03/25 09:25:49;;;;;;;37.08;22.70;;;;;;;;;;5057444;28;20484;-58
2022/03/25 09:28:16;;;;;;;39.60;23.58;;;;;;;;;;5057870;28;20439;-59
2022/03/25 09:30:43;;;;;;;36.88;24.60;;;;;;;;;;5057918;28;20278;-58
2022/03/25 09:33:09;;;;;;;39.78;24.13;;;;;;;;;;5058604;28;20209;-57
2022/03/25 09:35:36;;;;;;;38.05;23.80;;;;;;;;;;5057088;28;20246;-57
2022/03/25 09:38:02;;;;;;;38.60;24.23;;;;;;;;;;5057508;28;20208;-58
2022/03/25 09:40:29;;;;;;;35.35;24.33;;;;;;;;;;5057309;28;20248;-58
2022/03/25 09:42:57;;;;;;;38.88;24.73;;;;;;;;;;5057783;28;20259;-57
2022/03/25 09:45:25;;;;;;;42.65;25.42;;;;;;;;;;5057515;28;20209;-58
2022/03/25 09:47:51;;;;;;;37.38;24.02;;;;;;;;;;5057325;28;20205;-57
2022/03/25 09:50:21;;;;;;;47.17;25.40;;;;;;;;;;5057306;28;20279;-57
2022/03/25 09:52:47;;;;;;;37.13;24.88;;;;;;;;;;5057537;28;20213;-59
2022/03/25 09:55:14;;;;;;;41.83;25.15;;;;;;;;;;5057454;28;20579;-57
2022/03/25 09:57:40;;;;;;;41.75;25.00;;;;;;;;;;5056988;28;20215;-58
2022/03/25 10:00:07;;;;;;;40.75;24.48;;;;;;;;;;5057595;28;20209;-57
2022/03/25 10:02:35;;;;;;;39.40;24.73;;;;;;;;;;5057162;28;20209;-58
2022/03/25 10:05:12;;;;;;;36.63;23.77;;;;;;;;;;5056878;28;20465;-58
2022/03/25 10:07:43;;;;;;;40.88;24.55;;;;;;;;;;5056701;28;20544;-57
2022/03/25 10:10:11;;;;;;;36.80;24.05;;;;;;;;;;5057215;28;20258;-59
2022/03/25 10:12:38;;;;;;;50.13;26.23;;;;;;;;;;5056844;28;20232;-57
2022/03/25 10:15:13;;;;;;;38.15;24.98;;;;;;;;;;5056683;28;20209;-57
2022/03/25 10:17:51;;;;;;;40.28;24.15;;;;;;;;;;5056445;28;20209;-57
2022/03/25 10:20:17;;;;;;;42.45;24.65;;;;;;;;;;5057214;28;20249;-57
2022/03/25 10:23:00;;;;;;;54.05;26.25;;;;;;;;;;5057178;28;20209;-58
2022/03/25 10:25:33;;;;;;;50.55;27.77;;;;;;;;;;5056331;28;20221;-58
2022/03/25 10:27:59;;;;;;;48.35;26.48;;;;;;;;;;5056669;28;20209;-58
2022/03/25 10:30:34;;;;;;;44.08;27.00;;;;;;;;;;5056755;28;20540;-57
2022/03/25 10:33:08;;;;;;;43.13;26.70;;;;;;;;;;5056994;28;20220;-58
2022/03/25 10:35:51;;;;;;;41.95;25.65;;;;;;;;;;5056882;28;20247;-58
2022/03/25 10:38:18;;;;;;;51.97;25.90;;;;;;;;;;5056631;28;20255;-58
2022/03/25 10:40:48;;;;;;;44.40;25.20;;;;;;;;;;5056785;28;20213;-58
2022/03/25 10:43:15;;;;;;;42.28;24.90;;;;;;;;;;5056779;28;20247;-58
2022/03/25 10:45:41;;;;;;;45.50;27.85;;;;;;;;;;5056151;28;20235;-58
2022/03/25 10:48:12;;;;;;;40.35;26.58;;;;;;;;;;5056165;28;20258;-58
2022/03/25 10:50:53;;;;;;;43.83;26.48;;;;;;;;;;5055991;28;20260;-59
2022/03/25 10:53:21;;;;;;;43.40;26.40;;;;;;;;;;5056796;28;20213;-59
2022/03/25 10:55:52;;;;;;;47.35;26.13;;;;;;;;;;5055915;28;20255;-59
2022/03/25 10:58:18;;;;;;;43.45;26.75;;;;;;;;;;5055995;28;20252;-60
2022/03/25 11:00:45;;;;;;;42.50;25.38;;;;;;;;;;5056263;28;20250;-58
2022/03/25 11:03:14;;;;;;;45.58;26.05;;;;;;;;;;5056086;28;20217;-58
2022/03/25 11:05:40;;;;;;;41.67;26.40;;;;;;;;;;5055814;28;20252;-59
2022/03/25 11:08:07;;;;;;;44.00;25.50;;;;;;;;;;5055910;28;20370;-58
2022/03/25 11:10:33;;;;;;;43.90;26.98;;;;;;;;;;5056399;28;20275;-59
2022/03/25 11:13:02;;;;;;;41.50;26.80;;;;;;;;;;5056558;28;20863;-58
2022/03/25 11:15:30;;;;;;;51.15;28.38;;;;;;;;;;5056656;28;20266;-57
2022/03/25 11:17:56;;;;;;;39.65;26.48;;;;;;;;;;5055939;28;20258;-60
2022/03/25 11:20:25;;;;;;;40.28;26.23;;;;;;;;;;5056953;28;20201;-59
2022/03/25 11:22:53;;;;;;;37.35;25.73;;;;;;;;;;5057512;28;20209;-59
2022/03/25 11:25:21;;;;;;;43.20;26.25;;;;;;;;;;5060228;28;20221;-59
2022/03/25 11:27:50;;;;;;;40.17;25.67;;;;;;;;;;5060505;28;20219;-59
2022/03/25 11:30:16;;;;;;;37.05;24.50;;;;;;;;;;5059467;28;20205;-58
2022/03/25 11:32:49;;;;;;;38.90;24.50;;;;;;;;;;5060204;28;20283;-58
2022/03/25 11:35:16;;;;;;;36.72;25.48;;;;;;;;;;5060169;28;20393;-58
2022/03/25 11:37:44;;;;;;;40.50;26.25;;;;;;;;;;5059553;28;20275;-58
2022/03/25 11:40:25;;;;;;;41.58;26.05;;;;;;;;;;5060005;28;20216;-59
2022/03/25 11:42:52;;;;;;;37.55;24.40;;;;;;;;;;5059726;28;20946;-58
2022/03/25 11:45:35;;;;;;;38.17;24.05;;;;;;;;;;5059616;28;20209;-60
2022/03/25 11:48:20;;;;;;;33.92;24.15;;;;;;;;;;5059365;28;20415;-57
2022/03/25 11:50:46;;;;;;;32.58;22.63;;;;;;;;;;5059599;28;20435;-58
2022/03/25 11:53:33;;;;;;;39.95;24.58;;;;;;;;;;5059897;28;20251;-57
2022/03/25 11:56:00;;;;;;;35.75;24.17;;;;;;;;;;5068902;28;20215;-58
2022/03/25 11:58:26;;;;;;;33.67;24.33;;;;;;;;;;5074169;28;20200;-57
2022/03/25 12:00:55;;;;;;;34.72;23.98;;;;;;;;;;5079485;28;20254;-58
2022/03/25 12:03:21;;;;;;;37.03;25.55;;;;;;;;;;5079616;28;20246;-62
2022/03/25 12:05:57;;;;;;;37.40;24.50;;;;;;;;;;5078761;28;20232;-62
2022/03/25 12:08:28;;;;;;;32.97;23.05;;;;;;;;;;5079278;28;20239;-60
2022/03/25 12:10:57;;;;;;;39.92;23.33;;;;;;;;;;5079203;28;20256;-59
2022/03/25 12:13:23;;;;;;;32.97;23.70;;;;;;;;;;5079485;28;20262;-59
2022/03/25 12:15:51;;;;;;;35.97;25.15;;;;;;;;;;5079156;28;20208;-60
2022/03/25 12:18:36;;;;;;;34.78;25.30;;;;;;;;;;5079231;28;20209;-60
2022/03/25 12:21:03;;;;;;;29.25;21.08;;;;;;;;;;5068098;28;20209;-61
2022/03/25 12:23:29;;;;;;;33.67;19.25;;;;;;;;;;5059070;28;20517;-60
2022/03/25 12:25:56;;;;;;;59.20;22.27;;;;;;;;;;5058382;28;20283;-59
2022/03/25 12:28:23;;;;;;;28.92;20.52;;;;;;;;;;5058727;28;20255;-61
2022/03/25 12:30:50;;;;;;;29.92;22.00;;;;;;;;;;5058500;28;20231;-61
2022/03/25 12:33:19;;;;;;;36.70;22.77;;;;;;;;;;5058975;28;20535;-61
2022/03/25 12:35:46;;;;;;;30.02;20.20;;;;;;;;;;5058189;28;20548;-61
2022/03/25 12:38:19;;;;;;;24.45;18.23;;;;;;;;;;5058832;28;20209;-61
2022/03/25 12:40:45;;;;;;;26.45;18.20;;;;;;;;;;5058550;28;20243;-61
2022/03/25 12:43:13;;;;;;;24.67;17.30;;;;;;;;;;5058868;28;20464;-60
2022/03/25 12:45:40;;;;;;;26.38;17.80;;;;;;;;;;5059156;28;20247;-60
2022/03/25 12:48:10;;;;;;;25.02;18.70;;;;;;;;;;5058975;28;20215;-61
2022/03/25 12:50:37;;;;;;;30.90;18.73;;;;;;;;;;5059290;28;20208;-60
2022/03/25 12:53:04;;;;;;;27.80;20.48;;;;;;;;;;5059284;28;20592;-60
2022/03/25 12:55:32;;;;;;;26.35;19.70;;;;;;;;;;5058997;28;20583;-61
2022/03/25 12:58:05;;;;;;;28.08;21.33;;;;;;;;;;5058945;28;20209;-61
2022/03/25 13:00:34;;;;;;;29.77;23.20;;;;;;;;;;5058944;28;20215;-61
2022/03/25 13:03:01;;;;;;;34.92;23.00;;;;;;;;;;5058897;28;20302;-61
2022/03/25 13:05:27;;;;;;;33.88;22.95;;;;;;;;;;5058528;28;20476;-60
2022/03/25 13:07:54;;;;;;;32.33;22.65;;;;;;;;;;5058197;28;20217;-59
2022/03/25 13:10:20;;;;;;;27.38;21.05;;;;;;;;;;5058679;28;20209;-60
2022/03/25 13:12:51;;;;;;;51.63;23.30;;;;;;;;;;5058656;28;20560;-61
2022/03/25 13:15:18;;;;;;;55.63;21.85;;;;;;;;;;5058468;28;20212;-59
2022/03/25 13:17:46;;;;;;;31.60;21.17;;;;;;;;;;5057920;28;20442;-61
2022/03/25 13:20:14;;;;;;;28.52;21.95;;;;;;;;;;5058804;28;20240;-62
2022/03/25 13:22:53;;;;;;;30.48;21.13;;;;;;;;;;5058356;28;20201;-62
2022/03/25 13:25:24;;;;;;;27.85;20.33;;;;;;;;;;5057999;28;20244;-61
2022/03/25 13:27:50;;;;;;;28.75;20.98;;;;;;;;;;5057987;28;20247;-61
2022/03/25 13:30:16;;;;;;;31.90;21.45;;;;;;;;;;5058487;28;20209;-63
2022/03/25 13:32:43;;;;;;;32.25;23.48;;;;;;;;;;5058255;28;20256;-62
2022/03/25 13:35:11;;;;;;;32.40;23.25;;;;;;;;;;5057873;28;20231;-60
2022/03/25 13:37:37;;;;;;;31.20;22.58;;;;;;;;;;5057930;28;20231;-60
2022/03/25 13:40:04;;;;;;;32.92;24.48;;;;;;;;;;5058547;28;20389;-61
2022/03/25 13:42:32;;;;;;;29.58;21.70;;;;;;;;;;5058117;28;20519;-63
2022/03/25 13:45:04;;;;;;;46.85;25.30;;;;;;;;;;5057713;28;20231;-60
2022/03/25 13:47:31;;;;;;;38.95;25.63;;;;;;;;;;5056806;28;20416;-58
2022/03/25 13:50:12;;;;;;;29.92;22.23;;;;;;;;;;5056636;28;20263;-60
2022/03/25 13:52:38;;;;;;;121.07;28.65;;;;;;;;;;5057937;28;20547;-61
2022/03/25 13:55:14;;;;;;;31.90;22.98;;;;;;;;;;5057683;28;20470;-60
2022/03/25 13:57:40;;;;;;;35.33;23.50;;;;;;;;;;5057551;28;20208;-61
2022/03/25 14:00:07;;;;;;;28.20;22.65;;;;;;;;;;5057519;28;20537;-62
2022/03/25 14:02:33;;;;;;;32.45;24.67;;;;;;;;;;5057844;28;20216;-60
2022/03/25 14:04:59;;;;;;;38.70;24.45;;;;;;;;;;5057123;28;20527;-62
2022/03/25 14:07:28;;;;;;;31.98;23.27;;;;;;;;;;5057520;28;20275;-62
2022/03/25 14:09:56;;;;;;;35.35;24.52;;;;;;;;;;5057812;28;20200;-60
2022/03/25 14:12:23;;;;;;;33.03;22.33;;;;;;;;;;5058001;28;20248;-59
2022/03/25 14:14:56;;;;;;;30.88;22.13;;;;;;;;;;5057042;28;20208;-60
2022/03/25 14:17:28;;;;;;;29.73;21.60;;;;;;;;;;5057272;28;20524;-60
2022/03/25 14:19:58;;;;;;;27.58;20.30;;;;;;;;;;5057141;28;20208;-62
2022/03/25 14:22:24;;;;;;;29.48;22.33;;;;;;;;;;5057273;28;20508;-62